Time;durP1;ratioP1;P1;durP2;ratioP2;P2;SDS_P1;SDS_P2;PMS_P1;PMS_P2;Temp;Humidity;BMP_temperature;BMP_pressure;BME280_temperature;BME280_humidity;BME280_pressure;Samples;Min_cycle;Max_cycle;Signal;HPM_P1;HPM_P2
2022/07/28 00:00:43;;;;;;;5.72;4.75;;;17.50;79.30;;;;;;5032592;28;20658;-92
2022/07/28 00:03:11;;;;;;;4.97;4.43;;;17.50;82.10;;;;;;5034766;28;20256;-92
2022/07/28 00:05:39;;;;;;;7.80;4.60;;;17.40;81.50;;;;;;5035207;28;20198;-94
2022/07/28 00:08:23;;;;;;;5.57;4.75;;;17.30;81.60;;;;;;5033748;28;20571;-92
2022/07/28 00:10:53;;;;;;;5.90;4.75;;;17.30;82.00;;;;;;5032022;28;20198;-92
2022/07/28 00:13:23;;;;;;;5.75;4.80;;;17.30;82.10;;;;;;5028956;28;20651;-91
2022/07/28 00:15:50;;;;;;;5.57;5.03;;;17.30;83.00;;;;;;5030149;28;20202;-92
2022/07/28 00:18:19;;;;;;;5.30;4.78;;;17.20;83.10;;;;;;5032831;28;20224;-92
2022/07/28 00:20:46;;;;;;;5.00;4.50;;;17.30;83.50;;;;;;5030236;28;20206;-92
2022/07/28 00:23:17;;;;;;;6.20;5.30;;;17.20;83.70;;;;;;5029958;28;20628;-92
2022/07/28 00:25:44;;;;;;;8.93;5.18;;;17.20;83.60;;;;;;5031035;28;20203;-92
2022/07/28 00:28:11;;;;;;;5.43;4.93;;;17.20;84.00;;;;;;5032299;28;20210;-92
2022/07/28 00:30:38;;;;;;;6.00;5.40;;;17.20;84.50;;;;;;5031827;28;20199;-92
2022/07/28 00:33:11;;;;;;;5.45;4.95;;;17.20;84.70;;;;;;5033037;28;20232;-92
2022/07/28 00:38:20;;;;;;;6.03;5.43;;;17.10;85.60;;;;;;5031379;28;20223;-92
2022/07/28 00:43:35;;;;;;;6.57;5.78;;;17.00;85.60;;;;;;5033213;28;20583;-92
2022/07/28 00:46:02;;;;;;;6.53;5.85;;;17.00;86.30;;;;;;5034562;28;20207;-92
2022/07/28 00:48:44;;;;;;;7.03;5.30;;;17.00;86.20;;;;;;5032619;28;20248;-92
2022/07/28 00:51:15;;;;;;;6.28;5.68;;;16.90;86.70;;;;;;5033305;28;20203;-91
2022/07/28 00:53:48;;;;;;;6.47;5.88;;;16.90;87.00;;;;;;5029830;28;20714;-92
2022/07/28 00:56:15;;;;;;;6.32;5.45;;;16.90;87.50;;;;;;5033505;28;20209;-91
2022/07/28 00:58:42;;;;;;;7.03;5.35;;;16.90;88.30;;;;;;5035114;28;20593;-92
2022/07/28 01:01:23;;;;;;;6.45;5.72;;;16.90;88.10;;;;;;5034801;28;20206;-92
2022/07/28 01:03:57;;;;;;;7.97;5.90;;;16.90;88.20;;;;;;5033262;28;20588;-92
2022/07/28 01:06:40;;;;;;;9.63;5.63;;;16.90;89.00;;;;;;5031664;28;20618;-91
2022/07/28 01:09:14;;;;;;;7.25;5.90;;;16.80;89.50;;;;;;5026433;28;20203;-92
2022/07/28 01:11:48;;;;;;;7.38;5.82;;;16.70;90.00;;;;;;5034527;28;20567;-91
2022/07/28 01:14:27;;;;;;;7.20;6.55;;;16.70;90.30;;;;;;5034996;28;20202;-91
2022/07/28 01:17:14;;;;;;;10.50;6.75;;;16.70;90.80;;;;;;5027910;28;20234;-91
2022/07/28 01:19:46;;;;;;;6.55;5.85;;;16.70;90.40;;;;;;5032771;28;20199;-91
2022/07/28 01:22:21;;;;;;;7.13;6.22;;;16.70;90.40;;;;;;5027640;28;20199;-92
2022/07/28 01:24:54;;;;;;;6.93;6.32;;;16.60;90.70;;;;;;5014360;28;20213;-91
2022/07/28 01:27:36;;;;;;;7.20;6.03;;;16.60;90.90;;;;;;5034569;28;20198;-92
2022/07/28 01:30:08;;;;;;;6.65;6.05;;;16.60;90.90;;;;;;5031421;28;20202;-92
2022/07/28 01:32:50;;;;;;;7.70;6.57;;;16.60;91.00;;;;;;5027338;28;20229;-91
2022/07/28 01:35:23;;;;;;;7.85;7.05;;;16.60;91.10;;;;;;5028696;28;20272;-92
2022/07/28 01:37:53;;;;;;;11.73;6.88;;;16.50;91.30;;;;;;5035445;28;20606;-91
2022/07/28 01:40:29;;;;;;;7.43;6.65;;;16.50;91.50;;;;;;5029148;28;20216;-94
2022/07/28 01:43:05;;;;;;;7.97;7.18;;;16.50;91.60;;;;;;5041485;28;20212;-91
2022/07/28 01:45:34;;;;;;;7.75;7.05;;;16.40;91.80;;;;;;5035884;28;20680;-92
2022/07/28 01:48:16;;;;;;;8.80;7.47;;;16.40;91.80;;;;;;5037482;28;20253;-92
2022/07/28 01:54:20;;;;;;;7.72;6.97;;;16.40;91.80;;;;;;5027715;28;20240;-91
2022/07/28 01:56:55;;;;;;;9.45;7.82;;;16.30;91.80;;;;;;5028891;28;20210;-92
2022/07/28 01:59:26;;;;;;;9.13;8.18;;;16.30;92.10;;;;;;5026702;28;20560;-91
2022/07/28 02:02:06;;;;;;;10.60;7.47;;;16.30;92.00;;;;;;5027367;28;20516;-92
2022/07/28 02:04:38;;;;;;;9.65;7.95;;;16.30;92.40;;;;;;5033958;28;20198;-92
2022/07/28 02:07:07;;;;;;;12.10;7.75;;;16.20;92.50;;;;;;5025673;28;20203;-92
2022/07/28 02:09:43;;;;;;;8.68;7.93;;;16.20;92.70;;;;;;5033589;28;20205;-92
2022/07/28 02:12:13;;;;;;;8.95;8.05;;;16.20;92.70;;;;;;5028599;28;20642;-92
2022/07/28 02:14:41;;;;;;;9.73;8.38;;;16.20;92.90;;;;;;5028592;28;20208;-91
2022/07/28 02:17:27;;;;;;;9.10;8.20;;;16.10;93.00;;;;;;5033762;28;20208;-92
2022/07/28 02:20:09;;;;;;;8.13;7.38;;;16.20;93.20;;;;;;5028019;28;20241;-92
2022/07/28 02:22:59;;;;;;;9.40;8.30;;;16.20;93.40;;;;;;5024209;28;20566;-92
2022/07/28 02:25:27;;;;;;;9.10;8.07;;;16.10;93.40;;;;;;5032810;28;20224;-91
2022/07/28 02:31:20;;;;;;;9.05;7.90;;;16.10;93.50;;;;;;5033566;28;20186;-92
2022/07/28 02:34:12;;;;;;;8.98;8.18;;;16.10;93.50;;;;;;5033661;28;20201;-92
2022/07/28 02:36:58;;;;;;;9.23;8.23;;;16.10;93.80;;;;;;5030305;28;20206;-91
2022/07/28 02:39:36;;;;;;;9.60;8.63;;;16.10;93.90;;;;;;5033979;28;20198;-91
2022/07/28 02:42:06;;;;;;;9.30;8.10;;;16.10;93.90;;;;;;5029127;28;20203;-92
2022/07/28 02:45:17;;;;;;;8.90;8.10;;;16.10;93.80;;;;;;5027909;28;20232;-92
2022/07/28 02:48:07;;;;;;;9.75;8.30;;;16.00;94.00;;;;;;5029376;28;20281;-92
2022/07/28 02:50:39;;;;;;;9.25;8.27;;;16.00;94.20;;;;;;5029168;28;20191;-91
2022/07/28 02:53:20;;;;;;;9.90;8.10;;;16.00;94.30;;;;;;5028512;28;20203;-92
2022/07/28 02:55:54;;;;;;;10.98;8.60;;;16.00;94.30;;;;;;5026991;28;20198;-92
2022/07/28 02:58:26;;;;;;;9.50;8.60;;;16.00;94.30;;;;;;5032311;28;20222;-91
2022/07/28 03:00:55;;;;;;;10.05;9.02;;;16.00;94.50;;;;;;5026891;28;20186;-92
2022/07/28 03:03:24;;;;;;;8.98;8.07;;;15.90;94.60;;;;;;5033111;28;20202;-91
2022/07/28 03:06:00;;;;;;;8.48;7.68;;;15.90;94.70;;;;;;5032265;28;20556;-92
2022/07/28 03:08:37;;;;;;;9.65;8.70;;;16.00;94.60;;;;;;5033367;28;20631;-92
2022/07/28 03:11:47;;;;;;;11.07;9.07;;;16.00;94.60;;;;;;5021209;28;20217;-92
2022/07/28 03:14:17;;;;;;;11.13;8.65;;;15.90;94.50;;;;;;5031543;28;20717;-91
2022/07/28 03:17:23;;;;;;;10.75;8.68;;;15.90;94.60;;;;;;5032531;28;20197;-91
2022/07/28 03:20:11;;;;;;;9.80;8.77;;;15.90;94.90;;;;;;5029915;28;20245;-91
2022/07/28 03:22:39;;;;;;;10.70;8.90;;;15.90;94.70;;;;;;5032100;28;20201;-92
2022/07/28 03:25:34;;;;;;;9.48;8.57;;;15.80;95.00;;;;;;5024143;28;20286;-92
2022/07/28 03:28:23;;;;;;;9.10;8.20;;;15.80;95.20;;;;;;5024541;28;20216;-91
2022/07/28 03:31:05;;;;;;;9.68;8.60;;;15.80;95.30;;;;;;5027623;28;20203;-92
2022/07/28 03:34:11;;;;;;;9.70;8.70;;;15.80;95.30;;;;;;5033406;28;20225;-91
2022/07/28 03:37:12;;;;;;;12.35;8.30;;;15.80;95.40;;;;;;5036940;28;20658;-90
2022/07/28 03:39:47;;;;;;;12.77;8.75;;;15.80;95.40;;;;;;5034820;28;20212;-93
2022/07/28 03:42:21;;;;;;;8.90;8.05;;;15.80;95.60;;;;;;5031433;28;20304;-92
2022/07/28 03:45:07;;;;;;;8.60;7.70;;;15.80;95.60;;;;;;5019239;28;20195;-92
2022/07/28 03:47:34;;;;;;;9.48;8.25;;;15.80;95.50;;;;;;5025939;28;20647;-92
2022/07/28 03:50:11;;;;;;;9.20;8.30;;;15.80;95.40;;;;;;5032849;28;20572;-91
2022/07/28 03:52:38;;;;;;;9.23;7.95;;;15.80;95.50;;;;;;5029644;28;20555;-90
2022/07/28 03:55:41;;;;;;;9.55;8.13;;;15.80;95.60;;;;;;5033421;28;20211;-91
2022/07/28 03:58:19;;;;;;;9.35;7.65;;;15.80;95.60;;;;;;5032120;28;20202;-90
2022/07/28 04:00:47;;;;;;;8.55;7.75;;;15.80;95.80;;;;;;5026525;28;20197;-92
2022/07/28 04:03:18;;;;;;;11.40;8.27;;;15.70;95.90;;;;;;5032862;28;20561;-91
2022/07/28 04:06:00;;;;;;;10.88;8.32;;;15.80;95.90;;;;;;5033325;28;20201;-91
2022/07/28 04:08:47;;;;;;;9.48;7.70;;;15.80;95.90;;;;;;5034643;28;20550;-91
2022/07/28 04:11:18;;;;;;;8.82;7.18;;;15.90;95.80;;;;;;5025155;28;20227;-91
2022/07/28 04:13:49;;;;;;;8.13;7.32;;;16.00;95.30;;;;;;5028831;28;20274;-91
2022/07/28 04:16:16;;;;;;;7.90;7.20;;;16.00;95.10;;;;;;5033824;28;20194;-92
2022/07/28 04:18:54;;;;;;;8.35;7.47;;;16.00;95.10;;;;;;5032942;28;20223;-91
2022/07/28 04:21:47;;;;;;;9.30;7.28;;;16.00;95.10;;;;;;5034007;28;20619;-92
2022/07/28 04:24:14;;;;;;;8.95;7.05;;;16.10;94.80;;;;;;5028630;28;20668;-91
2022/07/28 04:26:41;;;;;;;7.68;6.88;;;16.10;94.70;;;;;;5032082;28;20654;-91
2022/07/28 04:32:44;;;;;;;9.05;6.70;;;16.10;94.80;;;;;;5036073;28;20205;-91
2022/07/28 04:35:25;;;;;;;8.15;7.10;;;16.00;94.90;;;;;;5032510;28;20203;-92
2022/07/28 04:37:54;;;;;;;8.55;7.28;;;16.00;94.90;;;;;;5036630;28;20195;-91
2022/07/28 04:40:25;;;;;;;7.95;7.15;;;16.00;95.00;;;;;;5036576;28;20202;-91
2022/07/28 04:43:11;;;;;;;9.35;7.68;;;16.00;94.80;;;;;;5037745;28;20292;-91
2022/07/28 04:45:49;;;;;;;8.85;6.95;;;16.00;95.10;;;;;;5037808;28;20205;-92
2022/07/28 04:48:18;;;;;;;8.52;7.63;;;16.00;94.90;;;;;;5038032;28;20221;-91
2022/07/28 04:50:53;;;;;;;8.32;7.35;;;16.00;94.70;;;;;;5018971;28;20210;-91
2022/07/28 04:53:47;;;;;;;9.05;7.80;;;16.00;95.00;;;;;;5032082;28;20277;-91
2022/07/28 04:56:17;;;;;;;8.20;7.35;;;16.00;95.10;;;;;;5036703;28;20199;-92
2022/07/28 04:59:29;;;;;;;7.63;6.93;;;16.00;95.30;;;;;;5042462;28;20271;-91
2022/07/28 05:01:57;;;;;;;12.30;7.40;;;16.10;94.60;;;;;;5035367;28;20241;-91
2022/07/28 05:04:55;;;;;;;9.70;7.57;;;16.10;94.90;;;;;;5037324;28;20722;-91
2022/07/28 05:14:05;;;;;;;8.40;7.20;;;16.10;95.00;;;;;;5036701;28;20189;-91
2022/07/28 05:16:42;;;;;;;9.40;6.88;;;16.30;94.50;;;;;;5039505;28;20217;-92
2022/07/28 05:23:23;;;;;;;8.27;7.20;;;16.40;94.30;;;;;;5042711;28;20178;-91
2022/07/28 05:25:51;;;;;;;11.48;7.57;;;16.50;94.10;;;;;;5040755;28;20594;-90
2022/07/28 05:28:19;;;;;;;8.95;8.00;;;16.70;94.40;;;;;;5038720;28;20210;-90
2022/07/28 05:30:46;;;;;;;9.02;7.25;;;16.80;93.70;;;;;;5046629;28;20206;-90
2022/07/28 05:33:15;;;;;;;8.98;8.07;;;16.80;93.40;;;;;;5039162;28;20214;-90
2022/07/28 05:35:43;;;;;;;9.80;7.22;;;17.00;92.70;;;;;;5037889;28;20593;-92
2022/07/28 05:38:10;;;;;;;10.65;6.93;;;17.30;92.40;;;;;;5031315;28;20261;-92
2022/07/28 05:40:37;;;;;;;7.32;6.60;;;17.90;90.70;;;;;;5035661;28;20317;-92
2022/07/28 05:43:05;;;;;;;7.30;6.50;;;18.20;88.50;;;;;;5027643;28;20264;-92
2022/07/28 05:45:32;;;;;;;7.53;6.53;;;18.30;86.90;;;;;;5031730;28;20666;-93
2022/07/28 05:48:00;;;;;;;9.32;7.07;;;18.20;86.90;;;;;;5031525;28;20289;-93
2022/07/28 05:50:30;;;;;;;7.80;7.07;;;17.90;90.00;;;;;;5026947;28;20198;-94
2022/07/28 05:55:37;;;;;;;7.72;6.45;;;17.80;90.70;;;;;;5030656;28;20194;-93
2022/07/28 05:58:05;;;;;;;14.70;9.98;;;17.90;91.10;;;;;;5032343;28;20206;-93
2022/07/28 06:00:33;;;;;;;8.27;6.68;;;18.30;90.20;;;;;;5034305;28;20289;-93
2022/07/28 06:03:01;;;;;;;7.15;6.35;;;18.80;86.20;;;;;;5030909;28;20198;-93
2022/07/28 06:05:29;;;;;;;10.35;6.57;;;18.80;86.60;;;;;;5008760;28;20196;-92
2022/07/28 06:07:56;;;;;;;10.05;6.40;;;18.60;86.40;;;;;;5032179;28;20289;-90
2022/07/28 06:10:25;;;;;;;8.27;6.43;;;18.50;87.50;;;;;;5031555;28;20202;-93
2022/07/28 06:12:53;;;;;;;7.10;6.40;;;18.50;86.20;;;;;;5027964;28;20217;-93
2022/07/28 06:15:24;;;;;;;8.73;6.32;;;18.30;88.90;;;;;;5032028;28;20654;-93
2022/07/28 06:17:54;;;;;;;9.55;6.20;;;18.30;90.00;;;;;;5033928;28;20245;-93
2022/07/28 06:20:22;;;;;;;8.32;6.18;;;18.30;90.20;;;;;;5024544;28;20309;-93
2022/07/28 06:22:51;;;;;;;15.65;8.40;;;18.40;90.70;;;;;;5028043;28;20205;-93
2022/07/28 06:25:19;;;;;;;7.20;6.40;;;18.50;90.60;;;;;;5034254;28;20562;-90
2022/07/28 06:27:47;;;;;;;8.05;6.00;;;18.60;88.30;;;;;;5038631;28;20218;-93
2022/07/28 06:30:14;;;;;;;7.93;6.43;;;18.60;88.70;;;;;;5033036;28;20206;-90
2022/07/28 06:32:43;;;;;;;10.32;6.40;;;18.70;87.60;;;;;;5038300;28;20221;-93
2022/07/28 06:35:10;;;;;;;6.55;5.70;;;18.80;87.80;;;;;;5034564;28;20292;-93
2022/07/28 06:37:37;;;;;;;9.73;6.10;;;18.90;87.70;;;;;;5033657;28;20202;-90
2022/07/28 06:40:06;;;;;;;8.82;5.63;;;18.90;88.10;;;;;;5026452;28;20310;-90
2022/07/28 06:42:33;;;;;;;6.10;5.50;;;19.00;86.10;;;;;;5032915;28;20237;-90
2022/07/28 06:44:59;;;;;;;9.75;7.05;;;19.00;85.10;;;;;;5042921;28;20201;-90
2022/07/28 06:47:30;;;;;;;7.75;5.80;;;19.10;85.90;;;;;;5032118;28;20209;-91
2022/07/28 06:49:58;;;;;;;7.72;5.95;;;19.20;85.50;;;;;;5034431;28;20743;-90
2022/07/28 06:52:25;;;;;;;8.38;6.00;;;19.20;85.60;;;;;;5031670;28;20214;-91
2022/07/28 06:54:54;;;;;;;8.38;5.38;;;19.40;83.30;;;;;;5028372;28;20338;-90
2022/07/28 06:57:21;;;;;;;8.18;5.93;;;19.40;84.70;;;;;;5036127;28;20582;-90
2022/07/28 06:59:49;;;;;;;8.57;6.20;;;19.40;85.50;;;;;;5028279;28;20219;-90
2022/07/28 07:02:16;;;;;;;6.57;5.78;;;19.50;83.80;;;;;;5031642;28;20220;-91
2022/07/28 07:04:43;;;;;;;7.85;6.32;;;19.60;82.40;;;;;;5035106;28;20582;-91
2022/07/28 07:07:12;;;;;;;8.82;6.07;;;19.70;81.50;;;;;;5038863;28;20210;-90
2022/07/28 07:09:39;;;;;;;8.55;5.70;;;19.80;80.70;;;;;;5028262;28;20565;-90
2022/07/28 07:12:06;;;;;;;6.10;5.50;;;19.80;81.40;;;;;;5033246;28;20660;-91
2022/07/28 07:14:33;;;;;;;6.75;5.40;;;19.80;81.90;;;;;;5034603;28;20201;-91
2022/07/28 07:17:00;;;;;;;6.22;5.60;;;19.90;81.60;;;;;;5033006;28;20650;-91
2022/07/28 07:19:30;;;;;;;7.95;5.30;;;20.00;80.80;;;;;;5037590;28;20277;-91
2022/07/28 07:21:56;;;;;;;5.90;5.32;;;20.10;79.40;;;;;;5029907;28;20211;-91
2022/07/28 07:24:25;;;;;;;6.53;5.55;;;20.20;78.70;;;;;;5032293;28;20191;-90
2022/07/28 07:26:52;;;;;;;6.93;5.57;;;20.20;77.10;;;;;;5034474;28;20260;-91
2022/07/28 07:29:21;;;;;;;7.32;5.00;;;20.20;76.20;;;;;;5041110;28;20218;-91
2022/07/28 07:31:47;;;;;;;9.75;5.45;;;20.10;79.70;;;;;;5040135;28;20261;-90
2022/07/28 07:34:15;;;;;;;5.90;5.40;;;20.10;81.30;;;;;;5035513;28;20228;-91
2022/07/28 07:36:48;;;;;;;5.70;5.15;;;20.20;79.70;;;;;;5031112;28;20211;-91
2022/07/28 07:39:18;;;;;;;5.93;4.80;;;20.30;76.90;;;;;;5034459;28;20313;-91
2022/07/28 07:44:58;;;;;;;5.40;4.90;;;20.60;75.80;;;;;;5014953;28;20201;-91
2022/07/28 07:47:25;;;;;;;7.82;5.22;;;20.70;74.10;;;;;;5033058;28;20241;-90
2022/07/28 07:49:52;;;;;;;7.53;4.90;;;20.80;77.00;;;;;;5039874;28;20207;-91
2022/07/28 07:52:19;;;;;;;6.35;4.95;;;20.80;74.30;;;;;;5016161;28;20589;-91
2022/07/28 07:54:46;;;;;;;8.68;5.13;;;21.00;71.70;;;;;;5031298;28;20226;-89
2022/07/28 07:57:19;;;;;;;6.30;4.60;;;21.00;70.10;;;;;;5045590;28;20248;-91
2022/07/28 07:59:46;;;;;;;6.85;4.55;;;21.00;70.60;;;;;;5036513;28;20268;-91
2022/07/28 08:02:13;;;;;;;5.15;3.85;;;21.00;69.40;;;;;;5034153;28;20297;-91
2022/07/28 08:04:40;;;;;;;4.30;3.90;;;21.10;68.30;;;;;;5032843;28;20197;-91
2022/07/28 08:07:07;;;;;;;7.57;4.00;;;21.20;66.30;;;;;;5036972;28;20289;-91
2022/07/28 08:09:34;;;;;;;5.60;3.78;;;21.40;63.00;;;;;;5037356;28;20198;-91
2022/07/28 08:12:01;;;;;;;4.85;4.35;;;21.40;63.20;;;;;;5033501;28;20201;-91
2022/07/28 08:14:29;;;;;;;5.65;4.50;;;21.50;68.70;;;;;;5031510;28;20203;-91
2022/07/28 08:17:00;;;;;;;4.70;4.30;;;21.50;64.80;;;;;;5029845;28;20631;-91
2022/07/28 08:19:27;;;;;;;6.35;4.15;;;21.70;60.00;;;;;;5027277;28;20223;-91
2022/07/28 08:21:55;;;;;;;4.40;4.00;;;21.80;58.70;;;;;;5036572;28;20199;-91
2022/07/28 08:24:22;;;;;;;4.50;4.00;;;21.90;57.60;;;;;;5035687;28;20272;-91
2022/07/28 08:26:50;;;;;;;5.80;4.70;;;21.90;59.30;;;;;;5036159;28;20206;-91
2022/07/28 08:29:17;;;;;;;5.95;4.20;;;22.00;59.00;;;;;;5032357;28;20233;-91
2022/07/28 08:31:45;;;;;;;6.32;4.20;;;22.20;57.90;;;;;;5039283;28;20278;-91
2022/07/28 08:34:12;;;;;;;5.13;4.50;;;22.30;62.00;;;;;;5030946;28;20221;-90
2022/07/28 08:36:38;;;;;;;5.60;5.10;;;22.40;57.40;;;;;;5041310;28;20201;-90
2022/07/28 08:39:05;;;;;;;7.07;4.90;;;22.50;56.40;;;;;;5034621;28;20218;-90
2022/07/28 08:41:41;;;;;;;5.70;4.80;;;22.50;57.10;;;;;;5034048;28;20210;-90
2022/07/28 08:44:10;;;;;;;7.20;4.72;;;22.50;54.90;;;;;;5037821;28;20210;-90
2022/07/28 08:46:38;;;;;;;4.95;4.45;;;22.70;53.80;;;;;;5034515;28;20217;-90
2022/07/28 08:49:09;;;;;;;5.07;4.57;;;23.00;52.40;;;;;;5035319;28;20202;-90
2022/07/28 08:51:37;;;;;;;5.20;4.70;;;23.40;50.00;;;;;;5035897;28;20198;-91
2022/07/28 08:54:05;;;;;;;5.10;4.60;;;24.20;44.40;;;;;;5036730;28;20661;-88
2022/07/28 08:56:33;;;;;;;5.03;4.07;;;25.30;36.40;;;;;;5034658;28;20203;-89
2022/07/28 08:59:01;;;;;;;4.15;3.75;;;26.90;30.30;;;;;;5032369;28;20560;-88
2022/07/28 09:01:28;;;;;;;7.22;3.97;;;28.50;23.30;;;;;;5031816;28;20220;-88
2022/07/28 09:03:55;;;;;;;5.38;4.63;;;30.40;18.10;;;;;;5033909;28;20657;-89
2022/07/28 09:06:24;;;;;;;4.22;3.83;;;31.30;17.20;;;;;;5040275;28;20204;-89
2022/07/28 09:08:52;;;;;;;5.13;4.00;;;31.70;17.20;;;;;;5040147;28;20230;-89
2022/07/28 09:11:18;;;;;;;9.27;4.32;;;31.50;15.90;;;;;;5040669;28;20720;-89
2022/07/28 09:13:45;;;;;;;7.30;4.60;;;31.60;15.50;;;;;;5032917;28;20194;-89
2022/07/28 09:16:14;;;;;;;7.82;4.43;;;31.20;17.20;;;;;;5036991;28;20225;-89
2022/07/28 09:18:41;;;;;;;4.30;3.85;;;31.30;16.40;;;;;;5045147;28;20547;-90
2022/07/28 09:21:08;;;;;;;4.88;4.40;;;31.80;14.90;;;;;;5044911;28;20550;-89
2022/07/28 09:23:48;;;;;;;6.45;4.88;;;33.00;12.90;;;;;;5040767;28;20212;-90
2022/07/28 09:26:17;;;;;;;5.78;4.65;;;33.70;11.50;;;;;;5038763;28;20202;-89
2022/07/28 09:28:50;;;;;;;5.90;4.45;;;33.00;11.80;;;;;;5029117;28;20201;-89
2022/07/28 09:31:18;;;;;;;4.28;3.88;;;33.50;11.60;;;;;;5031174;28;20607;-89
2022/07/28 09:34:02;;;;;;;6.30;4.45;;;33.40;11.40;;;;;;5012583;28;20206;-88
2022/07/28 09:36:36;;;;;;;4.93;4.53;;;33.00;13.90;;;;;;5027080;28;20194;-88
2022/07/28 09:39:05;;;;;;;4.88;4.45;;;33.70;11.00;;;;;;5026900;28;20206;-88
2022/07/28 09:41:47;;;;;;;5.82;4.53;;;34.20;10.00;;;;;;5032609;28;20198;-88
2022/07/28 09:44:19;;;;;;;7.82;4.45;;;33.20;12.20;;;;;;5029743;28;20194;-88
2022/07/28 09:46:46;;;;;;;4.40;4.00;;;33.30;11.50;;;;;;5024900;28;20219;-88
2022/07/28 09:49:13;;;;;;;4.93;4.13;;;33.70;10.70;;;;;;5031066;28;20570;-88
2022/07/28 09:51:40;;;;;;;6.60;4.65;;;33.20;11.70;;;;;;5026037;28;20570;-88
2022/07/28 09:54:11;;;;;;;7.13;4.57;;;32.40;13.50;;;;;;5029712;28;20220;-88
2022/07/28 09:56:39;;;;;;;5.30;4.80;;;32.10;14.10;;;;;;5029914;28;20206;-88
2022/07/28 09:59:07;;;;;;;4.80;4.40;;;32.10;13.20;;;;;;5025294;28;20206;-88
2022/07/28 10:01:36;;;;;;;5.20;4.60;;;32.80;11.70;;;;;;5027064;28;20272;-88
2022/07/28 10:04:02;;;;;;;4.90;4.03;;;32.10;13.60;;;;;;5031771;28;20244;-88
2022/07/28 10:06:31;;;;;;;4.47;3.95;;;32.60;12.50;;;;;;5028381;28;20208;-88
2022/07/28 10:08:59;;;;;;;4.55;4.15;;;33.60;10.60;;;;;;5033863;28;20218;-88
2022/07/28 10:11:29;;;;;;;5.68;4.68;;;33.50;11.00;;;;;;5029977;28;20202;-88
2022/07/28 10:14:03;;;;;;;4.50;4.10;;;33.40;10.90;;;;;;5045458;28;20547;-86
2022/07/28 10:16:32;;;;;;;4.40;4.10;;;33.80;11.10;;;;;;5041399;28;20226;-87
2022/07/28 10:19:00;;;;;;;5.00;4.05;;;33.50;11.10;;;;;;5045103;28;20194;-85
2022/07/28 10:21:28;;;;;;;4.97;4.50;;;32.80;11.30;;;;;;5050198;28;20294;-85
2022/07/28 10:23:58;;;;;;;5.15;4.20;;;34.00;9.00;;;;;;5032031;28;20244;-86
2022/07/28 10:26:29;;;;;;;5.10;4.70;;;33.10;10.90;;;;;;5035719;28;20209;-87
2022/07/28 10:28:57;;;;;;;4.57;4.07;;;32.40;11.90;;;;;;5034864;28;20202;-86
2022/07/28 10:31:32;;;;;;;6.05;4.07;;;31.80;14.50;;;;;;5029272;28;20202;-87
2022/07/28 10:34:00;;;;;;;5.43;3.70;;;32.30;13.50;;;;;;5027432;28;20200;-88
2022/07/28 10:36:28;;;;;;;6.78;4.28;;;33.10;12.90;;;;;;5029504;28;20223;-88
2022/07/28 10:39:02;;;;;;;6.93;4.00;;;32.70;12.40;;;;;;5034647;28;20195;-88
2022/07/28 10:41:38;;;;;;;4.38;3.53;;;32.20;12.80;;;;;;5028789;28;20616;-88
2022/07/28 10:44:05;;;;;;;5.70;4.10;;;32.70;11.70;;;;;;5030663;28;20202;-88
2022/07/28 10:46:33;;;;;;;5.47;3.72;;;32.70;11.70;;;;;;5025003;28;20205;-86
2022/07/28 10:49:01;;;;;;;4.40;3.80;;;32.10;13.10;;;;;;5024052;28;20202;-86
2022/07/28 10:51:29;;;;;;;8.38;3.97;;;31.70;12.90;;;;;;5028721;28;20237;-87
2022/07/28 10:54:05;;;;;;;3.95;3.60;;;31.80;14.30;;;;;;5031487;28;20198;-87
2022/07/28 10:56:46;;;;;;;6.70;4.35;;;31.80;13.00;;;;;;5028872;28;20198;-87
2022/07/28 10:59:28;;;;;;;5.00;3.85;;;31.50;13.80;;;;;;5028644;28;20212;-87
2022/07/28 11:01:56;;;;;;;6.13;3.80;;;31.70;13.60;;;;;;5025019;28;20213;-87
2022/07/28 11:04:57;;;;;;;5.63;3.45;;;31.90;13.00;;;;;;5028781;28;20210;-87
2022/07/28 11:07:38;;;;;;;8.18;4.38;;;31.80;12.60;;;;;;4970175;28;20282;-86
2022/07/28 11:10:15;;;;;;;6.00;3.85;;;31.60;13.40;;;;;;4969478;28;20212;-86
2022/07/28 11:12:48;;;;;;;5.65;3.40;;;31.60;13.90;;;;;;4969412;28;20215;-86
2022/07/28 11:15:28;;;;;;;5.43;3.60;;;31.30;13.80;;;;;;4970433;28;20683;-85
2022/07/28 11:18:04;;;;;;;5.07;3.33;;;30.50;16.10;;;;;;4979046;28;20203;-85
2022/07/28 11:21:08;;;;;;;4.28;3.55;;;29.90;16.60;;;;;;4972600;28;20211;-85
2022/07/28 11:23:39;;;;;;;6.88;3.40;;;29.20;16.70;;;;;;4974081;28;20210;-84
2022/07/28 11:26:37;;;;;;;4.35;3.40;;;28.60;19.00;;;;;;4973982;28;20189;-85
2022/07/28 11:29:18;;;;;;;4.13;3.60;;;28.50;17.80;;;;;;4968760;28;20204;-85
2022/07/28 11:32:04;;;;;;;7.25;3.60;;;28.30;19.10;;;;;;4970723;28;21525;-85
2022/07/28 11:35:09;;;;;;;5.03;3.20;;;28.30;19.50;;;;;;4967741;28;20680;-85
2022/07/28 11:38:07;;;;;;;6.28;3.40;;;28.30;18.50;;;;;;4963229;28;20210;-82
2022/07/28 11:40:37;;;;;;;5.70;3.30;;;28.20;18.90;;;;;;4975252;28;20702;-82
2022/07/28 11:43:34;;;;;;;5.63;3.25;;;28.00;19.60;;;;;;4988462;28;20206;-82
2022/07/28 11:46:33;;;;;;;4.50;3.28;;;28.00;20.00;;;;;;4997040;28;20564;-85
2022/07/28 11:49:21;;;;;;;5.20;3.40;;;27.90;19.70;;;;;;4995926;28;20232;-86
2022/07/28 11:52:13;;;;;;;5.30;3.10;;;28.00;19.70;;;;;;4998196;28;20218;-85
2022/07/28 11:54:41;;;;;;;5.32;3.22;;;27.70;19.20;;;;;;4998814;28;20207;-85
2022/07/28 11:57:10;;;;;;;4.93;3.35;;;27.70;19.60;;;;;;4998006;28;20196;-82
2022/07/28 11:59:41;;;;;;;5.15;3.70;;;27.60;18.90;;;;;;4994460;28;20211;-82
2022/07/28 12:02:10;;;;;;;5.75;3.05;;;27.70;19.00;;;;;;4994867;28;20234;-82
2022/07/28 12:04:42;;;;;;;5.53;3.08;;;27.60;19.60;;;;;;4990000;28;20200;-82
2022/07/28 12:07:10;;;;;;;5.85;2.95;;;27.60;19.40;;;;;;4998563;28;20192;-84
2022/07/28 12:09:37;;;;;;;5.65;3.08;;;27.80;20.20;;;;;;4993198;28;20203;-84
2022/07/28 12:12:07;;;;;;;5.13;2.95;;;27.80;19.20;;;;;;5002861;28;20210;-84
2022/07/28 12:14:38;;;;;;;5.30;2.88;;;27.90;20.00;;;;;;4993372;28;20208;-84
2022/07/28 12:17:05;;;;;;;5.10;3.25;;;27.70;19.40;;;;;;4987934;28;20203;-84
2022/07/28 12:19:33;;;;;;;4.57;3.00;;;27.80;19.00;;;;;;4992130;28;20203;-85
2022/07/28 12:22:00;;;;;;;7.53;3.13;;;27.70;19.00;;;;;;4996160;28;20224;-84
2022/07/28 12:24:29;;;;;;;3.63;3.10;;;27.80;18.60;;;;;;5028428;28;20285;-84
2022/07/28 12:26:58;;;;;;;5.22;3.30;;;27.70;18.50;;;;;;5008633;28;20220;-85
2022/07/28 12:29:30;;;;;;;5.38;2.88;;;27.80;18.50;;;;;;5034184;28;20576;-83
2022/07/28 12:31:58;;;;;;;4.75;3.22;;;27.70;19.60;;;;;;5030595;28;20235;-86
2022/07/28 12:34:25;;;;;;;4.22;3.15;;;27.70;19.10;;;;;;5027324;28;20203;-83
2022/07/28 12:36:55;;;;;;;6.78;3.42;;;27.60;18.90;;;;;;5034059;28;20205;-84
2022/07/28 12:39:24;;;;;;;5.07;2.95;;;27.60;19.50;;;;;;5032953;28;20202;-84
2022/07/28 12:42:02;;;;;;;4.68;3.03;;;27.70;19.70;;;;;;5035545;28;20233;-84
2022/07/28 12:44:39;;;;;;;4.72;3.28;;;27.60;19.80;;;;;;5032041;28;20264;-84
2022/07/28 12:47:08;;;;;;;3.58;2.70;;;27.60;20.00;;;;;;5040759;28;20201;-83
2022/07/28 12:49:37;;;;;;;8.05;3.17;;;27.70;18.80;;;;;;5025048;28;20206;-84
2022/07/28 12:52:21;;;;;;;3.47;3.10;;;27.80;19.40;;;;;;5031709;28;20396;-86
2022/07/28 12:54:48;;;;;;;9.90;3.40;;;27.80;18.70;;;;;;5020449;28;20444;-87
2022/07/28 12:57:15;;;;;;;5.43;3.08;;;27.80;18.40;;;;;;5032825;28;20285;-86
2022/07/28 12:59:42;;;;;;;4.05;3.03;;;27.80;19.50;;;;;;5032026;28;20550;-85
2022/07/28 13:02:09;;;;;;;11.50;3.30;;;27.80;18.40;;;;;;5029239;28;20231;-86
2022/07/28 13:04:44;;;;;;;5.95;2.67;;;27.70;18.50;;;;;;5032524;28;20201;-86
2022/07/28 13:07:13;;;;;;;4.18;2.80;;;27.50;19.70;;;;;;5032720;28;20208;-85
2022/07/28 13:09:46;;;;;;;4.80;3.22;;;27.60;20.90;;;;;;5034799;28;20209;-84
2022/07/28 13:12:18;;;;;;;7.82;3.22;;;27.60;19.50;;;;;;5027837;28;20298;-86
2022/07/28 13:14:46;;;;;;;3.88;3.08;;;27.70;18.90;;;;;;5027731;28;20199;-86
2022/07/28 13:17:13;;;;;;;6.72;2.90;;;27.70;19.10;;;;;;5031259;28;20230;-86
2022/07/28 13:19:40;;;;;;;4.47;2.60;;;27.60;18.90;;;;;;5026396;28;20195;-86
2022/07/28 13:22:07;;;;;;;6.30;3.47;;;27.70;20.00;;;;;;5028193;28;20218;-87
2022/07/28 13:24:34;;;;;;;3.85;2.35;;;27.80;18.10;;;;;;5030007;28;20214;-86
2022/07/28 13:27:03;;;;;;;7.32;2.95;;;27.80;18.00;;;;;;5032734;28;20230;-86
2022/07/28 13:29:33;;;;;;;3.63;2.88;;;27.80;18.70;;;;;;5029789;28;20650;-87
2022/07/28 13:32:00;;;;;;;6.65;2.90;;;27.80;18.10;;;;;;5023985;28;20226;-86
2022/07/28 13:34:27;;;;;;;3.85;2.83;;;27.80;18.50;;;;;;5026139;28;20207;-87
2022/07/28 13:36:55;;;;;;;5.70;2.42;;;27.80;18.30;;;;;;5033033;28;20571;-86
2022/07/28 13:39:23;;;;;;;6.30;3.30;;;27.80;18.90;;;;;;5031337;28;20202;-86
2022/07/28 13:41:49;;;;;;;4.70;2.92;;;28.00;17.40;;;;;;5032038;28;20248;-87
2022/07/28 13:44:18;;;;;;;4.43;2.67;;;27.80;18.70;;;;;;5033100;28;20205;-86
2022/07/28 13:46:48;;;;;;;8.30;2.92;;;27.70;18.40;;;;;;5031012;28;20207;-86